Latest Coastal Weather Observations for Carnarvon

IDW60701

Issued at 1:32 pm WST Wednesday 13 December 2017 (issued every 10 minutes, with the page automatically refreshed every 10 minutes)

About coastal observations | Map of coastal stations | Coastal observations for WA | Marine services | Other Formats
Station Details ID: 006011 Name: CARNARVON AIRPORT Lat: -24.89 Lon: 113.67 Height: 4.0 m
Data from the previous 72 hours. | See also: Recent months at Carnarvon
Date/Time
WST
Temp
°C
Wind Pressure Rain since
9am
mm
Weather Cloud Vis
km
Sea
Height
m
Swell
Dir  Spd
kts
Gust
kts
hPa Trend Height
m
Period
s
Dir
13/01:30pm 29.3 S 18 23 1012.2 - 0.0 - Clear 10 - - - -
13/01:00pm 28.0 S 19 24 1012.7 - 0.0 - - 10 - - - -
13/12:30pm 26.1 S 21 25 1013.1 - 0.0 - - 10 - - - -
13/12:00pm 26.0 S 23 27 1013.3 - 0.0 - - 10 - - - -
13/11:30am 26.9 S 20 26 1013.6 - 0.0 - - 10 - - - -
13/11:00am 26.6 S 21 29 1013.8 - 0.0 - - 10 - - - -
13/10:30am 26.5 S 22 29 1013.9 - 0.0 - - 10 - - - -
13/10:00am 25.3 SSE 23 29 1014.1 - 0.0 - - 10 - - - -
13/09:30am 24.9 S 23 29 1014.0 - 0.0 - - 10 - - - -
13/09:00am 24.0 SSE 23 28 1014.2 - 0.0 Fine Mostly clear 21 - - - -
13/08:30am 23.6 SSE 24 31 1014.2 - 0.0 - - 10 - - - -
13/08:00am 23.3 SSE 23 28 1014.2 - 0.0 - - 10 - - - -
13/07:30am 23.1 SSE 21 27 1014.2 - 0.0 - - 10 - - - -
13/07:17am 22.8 SSE 18 28 1014.2 - 0.0 - - 10 - - - -
13/07:00am 22.3 SSE 19 25 1014.0 - 0.0 - - 10 - - - -
13/06:30am 21.9 SSE 18 25 1013.7 - 0.0 - - 10 - - - -
13/06:00am 21.1 SSE 16 23 1013.6 - 0.0 - - 10 - - - -
13/05:30am 20.9 S 18 24 1013.4 - 0.0 - - 10 - - - -
13/05:00am 20.8 S 18 24 1012.8 - 0.0 - - 10 - - - -
13/04:30am 21.0 S 19 26 1012.7 - 0.0 - - 10 - - - -
13/04:26am 20.9 S 19 29 1012.7 - 0.0 - - 10 - - - -
13/04:00am 21.0 S 20 27 1012.6 - 0.0 - - 10 - - - -
13/03:30am 21.2 S 20 26 1012.5 - 0.0 - - 10 - - - -
13/03:00am 21.3 S 19 26 1012.4 - 0.0 - - 10 - - - -
13/02:30am 21.5 S 18 25 1012.4 - 0.0 - - 10 - - - -
13/02:00am 21.6 S 19 27 1012.5 - 0.0 - - 10 - - - -
13/01:30am 21.9 S 17 24 1012.6 - 0.0 - - 10 - - - -
13/01:00am 22.0 S 18 23 1012.5 - 0.0 - - 10 - - - -
13/12:30am 22.1 S 19 24 1012.8 - 0.0 - - 10 - - - -
13/12:00am 22.2 S 20 25 1012.9 - 0.0 - - 10 - - - -
 
Date/Time
WST
Temp
°C
Wind Pressure Rain since
9am
mm
Weather Cloud Vis
km
Sea
Height
m
Swell
Dir  Spd
kts
Gust
kts
hPa Trend Height
m
Period
s
Dir
12/11:30pm 22.4 S 20 24 1013.2 - 0.0 - - 10 - - - -
12/11:00pm 22.6 S 20 28 1013.3 - 0.0 - - 10 - - - -
12/10:30pm 22.6 S 19 26 1013.4 - 0.0 - - 10 - - - -
12/10:00pm 22.7 S 20 27 1013.2 - 0.0 - - 10 - - - -
12/09:30pm 22.9 S 20 27 1013.1 - 0.0 - - 10 - - - -
12/09:00pm 23.2 S 20 28 1012.7 - 0.0 - Mostly clear 10 - - - -
12/08:30pm 23.6 S 20 25 1012.7 - 0.0 - Partly cloudy 10 - - - -
12/08:00pm 23.8 S 20 27 1012.4 - 0.0 - Partly cloudy 10 - - - -
12/07:30pm 23.8 S 21 30 1011.9 - 0.0 - - 10 - - - -
12/07:00pm 24.1 SSW 23 30 1011.9 - 0.0 - - 10 - - - -
12/06:30pm 24.3 SSW 21 29 1011.7 - 0.0 - - 10 - - - -
12/06:00pm 24.9 SSW 23 29 1011.5 - 0.0 - - 10 - - - -
12/05:30pm 25.5 SSW 22 29 1011.4 - 0.0 - - 10 - - - -
12/05:00pm 26.0 SSW 21 29 1011.5 - 0.0 - - 10 - - - -
12/04:30pm 26.0 SSW 21 27 1011.6 - 0.0 - - 10 - - - -
12/04:00pm 26.6 SSW 19 25 1011.8 - 0.0 - - 10 - - - -
12/03:30pm 27.6 SSW 18 23 1012.1 - 0.0 - Partly cloudy 10 - - - -
12/03:00pm 26.7 SSW 19 24 1012.3 - 0.0 Fine Partly cloudy 26 - - - -
12/02:30pm 27.0 SSW 17 22 1012.4 - 0.0 - Partly cloudy 10 - - - -
12/02:00pm 27.1 SSW 18 22 1012.5 - 0.0 - Partly cloudy 10 - - - -
12/01:30pm 27.0 SSW 17 22 1012.9 - 0.0 - Partly cloudy 10 - - - -
12/01:00pm 27.2 SSW 16 22 1013.1 - 0.0 - Cloudy 10 - - - -
12/12:30pm 27.1 SSW 16 20 1013.2 - 0.0 - Partly cloudy 10 - - - -
12/12:00pm 27.1 SW 15 20 1013.4 - 0.0 - Cloudy 10 - - - -
12/11:30am 25.5 SSW 15 18 1013.6 - 0.0 - Cloudy 10 - - - -
12/11:00am 25.0 SSW 15 19 1013.8 - 0.0 - Partly cloudy 10 - - - -
12/10:30am 25.7 SSW 15 19 1013.9 - 0.0 - Partly cloudy 10 - - - -
12/10:00am 24.5 SSW 13 17 1013.9 - 0.0 - Partly cloudy 10 - - - -
12/09:30am 24.0 SSW 15 19 1014.0 - 0.0 - Cloudy 10 - - - -
12/09:00am 24.4 SSW 13 17 1013.9 - 0.0 Fine Cloudy 20 - - - -
12/08:30am 24.5 S 9 11 1013.8 - 0.0 - Cloudy 10 - - - -
12/08:00am 23.8 SSW 11 16 1013.6 - 0.0 - Partly cloudy 10 - - - -
12/07:30am 23.9 SSW 12 15 1013.5 - 0.0 - Partly cloudy 10 - - - -
12/07:00am 24.2 S 9 12 1013.2 - 0.0 - Partly cloudy 10 - - - -
12/06:30am 23.4 SSW 10 13 1012.8 - 0.0 - Partly cloudy 10 - - - -
12/06:00am 23.5 S 9 13 1012.5 - 0.0 - Cloudy 10 - - - -
12/05:30am 23.5 SW 9 13 1012.2 - 0.0 - Cloudy 10 - - - -
12/05:00am 23.3 SSW 13 18 1011.8 - 0.0 - Cloudy 10 - - - -
12/04:30am 23.4 SW 11 14 1011.5 - 0.0 - Partly cloudy 10 - - - -
12/04:00am 23.5 SW 11 15 1011.4 - 0.0 - Partly cloudy 10 - - - -
12/03:30am 23.4 SW 13 17 1011.3 - 0.0 - Partly cloudy 10 - - - -
12/03:00am 23.4 SW 13 17 1011.3 - 0.0 - Cloudy 10 - - - -
12/02:30am 23.6 SSW 13 17 1011.3 - 0.0 - Cloudy 10 - - - -
12/02:00am 23.4 SSW 13 18 1011.2 - 0.0 - Partly cloudy 10 - - - -
12/01:30am 23.3 SW 10 14 1011.4 - 0.0 - Partly cloudy 10 - - - -
12/01:00am 23.4 SW 13 17 1011.5 - 0.0 - Partly cloudy 10 - - - -
12/12:30am 23.3 SW 11 14 1011.8 - 0.0 - Partly cloudy 10 - - - -
12/12:00am 23.3 SW 11 14 1012.0 - 0.0 - Mostly clear 10 - - - -
 
Date/Time
WST
Temp
°C
Wind Pressure Rain since
9am
mm
Weather Cloud Vis
km
Sea
Height
m
Swell
Dir  Spd
kts
Gust
kts
hPa Trend Height
m
Period
s
Dir
11/11:30pm 23.5 SW 11 15 1012.3 - 0.0 - Partly cloudy 10 - - - -
11/11:00pm 23.8 SW 10 13 1012.5 - 0.0 - Partly cloudy 10 - - - -
11/10:30pm 23.6 SW 7 10 1012.7 - 0.0 - Partly cloudy 10 - - - -
11/10:00pm 23.7 WSW 8 11 1012.7 - 0.0 - - 10 - - - -
11/09:30pm 23.7 WSW 9 12 1012.5 - 0.0 - - 10 - - - -
11/09:00pm 23.7 WSW 9 12 1012.4 - 0.0 - - 10 - - - -
11/08:30pm 23.8 WSW 10 13 1012.2 - 0.0 - - 10 - - - -
11/08:00pm 23.9 W 10 13 1011.9 - 0.0 - - 10 - - - -
11/07:30pm 24.0 W 9 13 1011.8 - 0.0 - - 10 - - - -
11/07:00pm 24.4 W 11 14 1011.5 - 0.0 - - 10 - - - -
11/06:30pm 25.1 WSW 11 14 1011.2 - 0.0 - - 10 - - - -
11/06:00pm 25.3 WSW 12 16 1010.9 - 0.0 - - 10 - - - -
11/05:30pm 25.7 W 13 16 1010.7 - 0.0 - - 10 - - - -
11/05:00pm 26.1 W 13 17 1010.6 - 0.0 - - 10 - - - -
11/04:30pm 26.5 W 15 19 1010.5 - 0.0 - - 10 - - - -
11/04:00pm 26.9 W 14 19 1010.5 - 0.0 - - 10 - - - -
11/03:30pm 27.1 W 15 21 1010.6 - 0.0 - - 10 - - - -
11/03:00pm 27.9 W 15 21 1010.5 - 0.0 Fine Mostly clear 25 - - - -
11/02:30pm 27.5 WNW 14 19 1010.7 - 0.0 - - 10 - - - -
11/02:00pm 27.6 W 15 19 1010.8 - 0.0 - - 10 - - - -
11/01:30pm 28.4 WNW 15 20 1010.8 - 0.0 - - 10 - - - -
11/01:00pm 28.3 WNW 15 20 1010.8 - 0.0 - - 10 - - - -
11/12:30pm 27.6 WNW 15 20 1011.3 - 0.0 - - 10 - - - -
11/12:00pm 27.8 W 15 18 1011.4 - 0.0 - - 10 - - - -
11/11:30am 27.6 WNW 15 19 1011.6 - 0.0 - - 10 - - - -
11/11:00am 27.7 WNW 12 17 1011.9 - 0.0 - - 10 - - - -
11/10:30am 27.6 WNW 12 17 1012.1 - 0.0 - - 10 - - - -
11/10:00am 26.5 NW 12 15 1012.3 - 0.0 - - 10 - - - -
11/09:30am 26.9 NW 12 21 1012.3 - 0.0 - - 10 - - - -
11/09:00am 27.2 NNW 12 17 1012.3 - 0.0 Fine Partly cloudy 22 - - - -
11/08:30am 25.6 NW 13 17 1012.4 - 0.0 - Partly cloudy 10 - - - -
11/08:00am 26.2 NW 10 12 1012.2 - 0.0 - Partly cloudy 10 - - - -
11/07:30am 24.6 N 7 9 1012.1 - 0.0 - Partly cloudy 10 - - - -
11/07:00am 23.0 N 9 11 1012.0 - 0.0 - - 10 - - - -
11/06:30am 21.6 NNE 8 10 1011.7 - 0.0 - - 10 - - - -
11/06:00am 20.1 NNE 6 8 1011.4 - 0.0 - - 10 - - - -
11/05:30am 19.4 NNE 6 8 1010.9 - 0.0 - - 10 - - - -
11/05:00am 19.4 NNE 5 5 1010.7 - 0.0 - Partly cloudy 10 - - - -
11/04:30am 19.6 NNE 5 7 1010.3 - 0.0 - Partly cloudy 10 - - - -
11/04:00am 20.2 NNE 6 7 1010.2 - 0.0 - - 10 - - - -
11/03:30am 20.4 N 5 6 1010.2 - 0.0 - - 10 - - - -
11/03:00am 20.9 N 5 6 1010.2 - 0.0 - Mostly clear 10 - - - -
11/02:30am 20.8 NNE 5 5 1010.3 - 0.0 - Partly cloudy 10 - - - -
11/02:00am 20.7 NNE 5 6 1010.5 - 0.0 - Partly cloudy 10 - - - -
11/01:30am 21.3 N 5 6 1010.7 - 0.0 - Partly cloudy 10 - - - -
11/01:00am 23.1 NW 5 7 1011.0 - 0.0 - Partly cloudy 10 - - - -
11/12:30am 23.1 NW 5 7 1011.3 - 0.0 - Partly cloudy 10 - - - -
11/12:00am 22.9 WNW 6 8 1011.5 - 0.0 - - 10 - - - -
 
Date/Time
WST
Temp
°C
Wind Pressure Rain since
9am
mm
Weather Cloud Vis
km
Sea
Height
m
Swell
Dir  Spd
kts
Gust
kts
hPa Trend Height
m
Period
s
Dir
10/11:30pm 23.2 WNW 6 8 1011.7 - 0.0 - Partly cloudy 10 - - - -
10/11:00pm 23.2 WNW 6 8 1011.8 - 0.0 - Partly cloudy 10 - - - -
10/10:30pm 23.2 WNW 6 7 1011.8 - 0.0 - Partly cloudy 10 - - - -
10/10:00pm 23.2 WNW 6 8 1011.7 - 0.0 - - 10 - - - -
10/09:30pm 23.3 WNW 7 9 1011.6 - 0.0 - - 10 - - - -
10/09:00pm 23.6 WNW 8 10 1011.4 - 0.0 - - 10 - - - -
10/08:30pm 23.7 WNW 8 10 1011.2 - 0.0 - - 10 - - - -
10/08:00pm 23.8 WNW 8 10 1010.8 - 0.0 - - 10 - - - -
10/07:30pm 24.0 W 8 10 1010.4 - 0.0 - - 10 - - - -
10/07:00pm 24.4 W 8 11 1010.2 - 0.0 - - 10 - - - -
10/06:30pm 24.9 W 9 12 1009.7 - 0.0 - - 10 - - - -
10/06:00pm 25.4 W 11 15 1009.4 - 0.0 - - 10 - - - -
10/05:30pm 26.0 W 12 16 1009.1 - 0.0 - Partly cloudy 10 - - - -
10/05:00pm 26.3 W 11 16 1008.9 - 0.0 - Partly cloudy 10 - - - -
10/04:30pm 26.3 W 11 15 1008.8 - 0.0 - - 10 - - - -
10/04:00pm 27.3 W 12 17 1008.9 - 0.0 - - 10 - - - -
10/03:30pm 27.0 W 14 18 1008.9 - 0.0 - - 10 - - - -
10/03:00pm 27.4 W 15 19 1009.1 - 0.0 - - 10 - - - -
10/02:30pm 27.3 W 15 21 1009.1 - 0.0 - - 10 - - - -
10/02:00pm 26.9 W 16 20 1009.1 - 0.0 - - 10 - - - -

Other Formats:

Comma delimited format used in spreadsheet applications
http://www.bom.gov.au/fwo/IDW60701/IDW60701.94300.axf

JavaScript Object Notation format (JSON) in row-major order
http://www.bom.gov.au/fwo/IDW60701/IDW60701.94300.json